RYR221 EDDL-EGLL
Flight info
| Callsign | RYR221 |
|---|---|
| Flight time | 1h 1m |
| Altitude | 18000 |
| Route | NETEX4Z NETEX Z282 DIBIR L179 ROMIN/N0453F320 L179 SASKI L608 LOGAN |
| Aircraft | B738/M-SDE2E3FGHIRWXY/LB1 |
Departure
| Time | 2026-05-07 23:22 |
|---|---|
| Airport | Düsseldorf Airport (EDDL) |
Arrival
| Time | 2026-05-08 00:23 |
|---|---|
| Airport | London Heathrow Airport (EGLL) |
| Time | Latitude | Longitude | Altitude | Speed | Heading |
|---|---|---|---|---|---|
| 2026-05-07 22:32 | 51.28058 | 6.76724 | 117 ft | 0 kts | 276° |
| 2026-05-07 23:07 | 51.28054 | 6.76755 | 112 ft | 4 kts | 304° |
| 2026-05-07 23:07 | 51.28036 | 6.76774 | 115 ft | 4 kts | 7° |
| 2026-05-07 23:07 | 51.28026 | 6.76771 | 116 ft | 1 kts | 18° |
| 2026-05-07 23:16 | 51.28042 | 6.76779 | 115 ft | 7 kts | 18° |
| 2026-05-07 23:16 | 51.28120 | 6.76819 | 117 ft | 14 kts | 17° |
| 2026-05-07 23:17 | 51.28218 | 6.76844 | 117 ft | 14 kts | 5° |
| 2026-05-07 23:17 | 51.28317 | 6.76863 | 117 ft | 14 kts | 6° |
| 2026-05-07 23:17 | 51.28408 | 6.76823 | 114 ft | 14 kts | 320° |
| 2026-05-07 23:17 | 51.28451 | 6.76704 | 117 ft | 13 kts | 252° |
| 2026-05-07 23:18 | 51.28396 | 6.76579 | 117 ft | 14 kts | 232° |
| 2026-05-07 23:18 | 51.28340 | 6.76460 | 113 ft | 13 kts | 233° |
| 2026-05-07 23:18 | 51.28286 | 6.76347 | 115 ft | 13 kts | 233° |
| 2026-05-07 23:18 | 51.28224 | 6.76217 | 117 ft | 17 kts | 232° |
| 2026-05-07 23:19 | 51.28140 | 6.76041 | 115 ft | 22 kts | 233° |
| 2026-05-07 23:19 | 51.28042 | 6.75834 | 116 ft | 25 kts | 233° |
| 2026-05-07 23:19 | 51.27940 | 6.75623 | 115 ft | 24 kts | 232° |
| 2026-05-07 23:19 | 51.27843 | 6.75411 | 115 ft | 19 kts | 247° |
| 2026-05-07 23:20 | 51.27922 | 6.75286 | 112 ft | 18 kts | 333° |
| 2026-05-07 23:20 | 51.28023 | 6.75310 | 113 ft | 17 kts | 68° |
| 2026-05-07 23:20 | 51.28062 | 6.75411 | 113 ft | 0 kts | 52° |
| 2026-05-07 23:22 | 51.28123 | 6.75539 | 116 ft | 46 kts | 52° |
| 2026-05-07 23:22 | 51.28475 | 6.76276 | 111 ft | 119 kts | 52° |
| 2026-05-07 23:22 | 51.29109 | 6.77573 | 189 ft | 170 kts | 52° |
| 2026-05-07 23:22 | 51.29807 | 6.79128 | 953 ft | 170 kts | 56° |
| 2026-05-07 23:23 | 51.30450 | 6.80627 | 2030 ft | 158 kts | 54° |
| 2026-05-07 23:23 | 51.31129 | 6.82055 | 2570 ft | 169 kts | 53° |
| 2026-05-07 23:23 | 51.31907 | 6.83667 | 2810 ft | 195 kts | 52° |
| 2026-05-07 23:23 | 51.32777 | 6.85471 | 3012 ft | 214 kts | 52° |
| 2026-05-07 23:24 | 51.33726 | 6.87446 | 3206 ft | 232 kts | 53° |
| 2026-05-07 23:24 | 51.34742 | 6.89579 | 3375 ft | 251 kts | 45° |
| 2026-05-07 23:24 | 51.36276 | 6.90881 | 3783 ft | 261 kts | 11° |
| 2026-05-07 23:24 | 51.38064 | 6.91315 | 4581 ft | 260 kts | 8° |
| 2026-05-07 23:25 | 51.39851 | 6.91755 | 5339 ft | 261 kts | 8° |
| 2026-05-07 23:25 | 51.41658 | 6.92220 | 6002 ft | 265 kts | 9° |
| 2026-05-07 23:25 | 51.43488 | 6.92700 | 6715 ft | 268 kts | 9° |
| 2026-05-07 23:25 | 51.45332 | 6.93190 | 7401 ft | 271 kts | 9° |
| 2026-05-07 23:26 | 51.47203 | 6.93607 | 8052 ft | 275 kts | 360° |
| 2026-05-07 23:26 | 51.49065 | 6.92874 | 8667 ft | 280 kts | 329° |
| 2026-05-07 23:26 | 51.50491 | 6.90759 | 9410 ft | 281 kts | 303° |
| 2026-05-07 23:26 | 51.51345 | 6.87930 | 10135 ft | 284 kts | 291° |
| 2026-05-07 23:27 | 51.52793 | 6.81621 | 10718 ft | 323 kts | 290° |
| 2026-05-07 23:27 | 51.53606 | 6.78114 | 10884 ft | 344 kts | 290° |
| 2026-05-07 23:27 | 51.54466 | 6.74473 | 11175 ft | 359 kts | 290° |
| 2026-05-07 23:28 | 51.55338 | 6.70686 | 11755 ft | 364 kts | 285° |
| 2026-05-07 23:28 | 51.55576 | 6.66650 | 12452 ft | 365 kts | 263° |
| 2026-05-07 23:28 | 51.54918 | 6.62744 | 13232 ft | 365 kts | 245° |
| 2026-05-07 23:28 | 51.53760 | 6.59082 | 13984 ft | 368 kts | 242° |
| 2026-05-07 23:29 | 51.52543 | 6.55441 | 14622 ft | 372 kts | 242° |
| 2026-05-07 23:29 | 51.51316 | 6.51767 | 15268 ft | 375 kts | 242° |
| 2026-05-07 23:29 | 51.50093 | 6.48049 | 15934 ft | 378 kts | 242° |
| 2026-05-07 23:29 | 51.48868 | 6.44283 | 16594 ft | 381 kts | 243° |
| 2026-05-07 23:30 | 51.47642 | 6.40499 | 17231 ft | 385 kts | 243° |
| 2026-05-07 23:30 | 51.46260 | 6.36816 | 17845 ft | 389 kts | 230° |
| 2026-05-07 23:30 | 51.44200 | 6.33978 | 18447 ft | 394 kts | 212° |
| 2026-05-07 23:30 | 51.41721 | 6.32205 | 19019 ft | 397 kts | 200° |
| 2026-05-07 23:31 | 51.39101 | 6.30742 | 19560 ft | 401 kts | 200° |
| 2026-05-07 23:31 | 51.36455 | 6.29242 | 20059 ft | 405 kts | 201° |
| 2026-05-07 23:31 | 51.33892 | 6.27376 | 20536 ft | 407 kts | 216° |
| 2026-05-07 23:31 | 51.31849 | 6.24266 | 21089 ft | 407 kts | 233° |
| 2026-05-07 23:32 | 51.30350 | 6.20435 | 21647 ft | 408 kts | 242° |
| 2026-05-07 23:32 | 51.29022 | 6.16414 | 22153 ft | 411 kts | 243° |
| 2026-05-07 23:32 | 51.27672 | 6.12372 | 22630 ft | 414 kts | 242° |
| 2026-05-07 23:32 | 51.26337 | 6.08271 | 23115 ft | 417 kts | 243° |
| 2026-05-07 23:33 | 51.25014 | 6.04126 | 23601 ft | 419 kts | 243° |
| 2026-05-07 23:33 | 51.23710 | 5.99945 | 24014 ft | 421 kts | 247° |
| 2026-05-07 23:33 | 51.22765 | 5.95524 | 24412 ft | 423 kts | 256° |
| 2026-05-07 23:33 | 51.22228 | 5.90905 | 24815 ft | 425 kts | 265° |
| 2026-05-07 23:34 | 51.22098 | 5.86236 | 25201 ft | 426 kts | 268° |
| 2026-05-07 23:34 | 51.22031 | 5.81445 | 25573 ft | 429 kts | 268° |
| 2026-05-07 23:34 | 51.21962 | 5.76677 | 25933 ft | 431 kts | 268° |
| 2026-05-07 23:34 | 51.21877 | 5.71955 | 26290 ft | 433 kts | 268° |
| 2026-05-07 23:35 | 51.21776 | 5.67153 | 26656 ft | 434 kts | 268° |
| 2026-05-07 23:35 | 51.21664 | 5.62314 | 27009 ft | 436 kts | 267° |
| 2026-05-07 23:35 | 51.21544 | 5.57479 | 27339 ft | 438 kts | 267° |
| 2026-05-07 23:35 | 51.21391 | 5.52609 | 27657 ft | 440 kts | 266° |
| 2026-05-07 23:36 | 51.21222 | 5.47715 | 27986 ft | 442 kts | 266° |
| 2026-05-07 23:36 | 51.21048 | 5.42826 | 28426 ft | 441 kts | 266° |
| 2026-05-07 23:36 | 51.20875 | 5.37960 | 28929 ft | 438 kts | 266° |
| 2026-05-07 23:36 | 51.20703 | 5.33116 | 29417 ft | 436 kts | 266° |
| 2026-05-07 23:37 | 51.20532 | 5.28284 | 29878 ft | 435 kts | 266° |
| 2026-05-07 23:37 | 51.20361 | 5.23464 | 30281 ft | 435 kts | 266° |
| 2026-05-07 23:37 | 51.20190 | 5.18664 | 30655 ft | 433 kts | 266° |
| 2026-05-07 23:37 | 51.20018 | 5.13923 | 31022 ft | 432 kts | 266° |
| 2026-05-07 23:38 | 51.19844 | 5.09145 | 31373 ft | 432 kts | 266° |
| 2026-05-07 23:38 | 51.19668 | 5.04367 | 31716 ft | 431 kts | 266° |
| 2026-05-07 23:38 | 51.19490 | 4.99604 | 32061 ft | 431 kts | 266° |
| 2026-05-07 23:38 | 51.19330 | 4.94809 | 32078 ft | 435 kts | 266° |
| 2026-05-07 23:39 | 51.19042 | 4.85176 | 32093 ft | 433 kts | 266° |
| 2026-05-07 23:39 | 51.18719 | 4.75675 | 32100 ft | 428 kts | 266° |
| 2026-05-07 23:40 | 51.18365 | 4.66180 | 32105 ft | 429 kts | 266° |
| 2026-05-07 23:40 | 51.18006 | 4.56684 | 32105 ft | 430 kts | 265° |
| 2026-05-07 23:41 | 51.17643 | 4.47166 | 32104 ft | 430 kts | 265° |
| 2026-05-07 23:41 | 51.17274 | 4.37682 | 32105 ft | 431 kts | 265° |
| 2026-05-07 23:42 | 51.16897 | 4.28162 | 32103 ft | 431 kts | 265° |
| 2026-05-07 23:42 | 51.16873 | 4.18622 | 32101 ft | 432 kts | 276° |
| 2026-05-07 23:43 | 51.18422 | 4.09353 | 32108 ft | 435 kts | 288° |
| 2026-05-07 23:43 | 51.20528 | 4.00288 | 32091 ft | 435 kts | 288° |
| 2026-05-07 23:44 | 51.22566 | 3.91245 | 32089 ft | 435 kts | 288° |
| 2026-05-07 23:44 | 51.24584 | 3.82117 | 32086 ft | 435 kts | 288° |
| 2026-05-07 23:45 | 51.26587 | 3.73057 | 32089 ft | 435 kts | 288° |
| 2026-05-07 23:45 | 51.28258 | 3.65474 | 32105 ft | 435 kts | 288° |
| 2026-05-07 23:46 | 51.30576 | 3.54904 | 32090 ft | 435 kts | 287° |
| 2026-05-07 23:46 | 51.32248 | 3.47245 | 32092 ft | 435 kts | 287° |
| 2026-05-07 23:47 | 51.34221 | 3.38178 | 32098 ft | 434 kts | 287° |
| 2026-05-07 23:47 | 51.36287 | 3.29058 | 32096 ft | 435 kts | 289° |
| 2026-05-07 23:48 | 51.38479 | 3.20043 | 32097 ft | 435 kts | 289° |
| 2026-05-07 23:48 | 51.40635 | 3.10998 | 32101 ft | 434 kts | 289° |
| 2026-05-07 23:49 | 51.42752 | 3.01990 | 32099 ft | 434 kts | 289° |
| 2026-05-07 23:49 | 51.44874 | 2.92918 | 32099 ft | 434 kts | 288° |
| 2026-05-07 23:50 | 51.46997 | 2.83810 | 32103 ft | 435 kts | 288° |
| 2026-05-07 23:50 | 51.49094 | 2.74773 | 32101 ft | 435 kts | 288° |
| 2026-05-07 23:51 | 51.51203 | 2.65651 | 32101 ft | 435 kts | 288° |
| 2026-05-07 23:51 | 51.53303 | 2.56535 | 32101 ft | 435 kts | 288° |
| 2026-05-07 23:52 | 51.55394 | 2.47404 | 32113 ft | 435 kts | 288° |
| 2026-05-07 23:52 | 51.57472 | 2.38244 | 32111 ft | 436 kts | 288° |
| 2026-05-07 23:53 | 51.59542 | 2.29126 | 32099 ft | 436 kts | 288° |
| 2026-05-07 23:53 | 51.61630 | 2.19954 | 32103 ft | 436 kts | 288° |
| 2026-05-07 23:54 | 51.62675 | 2.15344 | 31854 ft | 440 kts | 288° |
| 2026-05-07 23:54 | 51.63723 | 2.10705 | 31291 ft | 439 kts | 288° |
| 2026-05-07 23:54 | 51.64766 | 2.06087 | 30600 ft | 438 kts | 288° |
| 2026-05-07 23:54 | 51.65808 | 2.01469 | 29876 ft | 437 kts | 288° |
| 2026-05-07 23:55 | 51.66825 | 1.96956 | 29328 ft | 431 kts | 288° |
| 2026-05-07 23:55 | 51.67841 | 1.92439 | 28788 ft | 425 kts | 288° |
| 2026-05-07 23:55 | 51.68845 | 1.87965 | 28248 ft | 420 kts | 288° |
| 2026-05-07 23:55 | 51.69830 | 1.83565 | 27720 ft | 415 kts | 288° |
| 2026-05-07 23:56 | 51.70801 | 1.79212 | 27206 ft | 411 kts | 288° |
| 2026-05-07 23:56 | 51.71762 | 1.74899 | 26687 ft | 407 kts | 288° |
| 2026-05-07 23:56 | 51.72714 | 1.70622 | 26174 ft | 403 kts | 288° |
| 2026-05-07 23:56 | 51.73643 | 1.66436 | 25676 ft | 400 kts | 288° |
| 2026-05-07 23:57 | 51.74515 | 1.62188 | 25167 ft | 395 kts | 281° |
| 2026-05-07 23:57 | 51.74683 | 1.57805 | 24613 ft | 391 kts | 264° |
| 2026-05-07 23:57 | 51.74401 | 1.53426 | 24059 ft | 391 kts | 262° |
| 2026-05-07 23:57 | 51.74085 | 1.49038 | 23437 ft | 395 kts | 262° |
| 2026-05-07 23:58 | 51.73769 | 1.44664 | 22768 ft | 397 kts | 262° |
| 2026-05-07 23:58 | 51.73459 | 1.40252 | 22171 ft | 394 kts | 262° |
| 2026-05-07 23:58 | 51.73159 | 1.35883 | 21578 ft | 391 kts | 263° |
| 2026-05-07 23:58 | 51.72865 | 1.31522 | 21002 ft | 388 kts | 263° |
| 2026-05-07 23:59 | 51.72576 | 1.27202 | 20419 ft | 386 kts | 263° |
| 2026-05-07 23:59 | 51.72288 | 1.22893 | 19838 ft | 384 kts | 263° |
| 2026-05-07 23:59 | 51.72001 | 1.18614 | 19286 ft | 383 kts | 263° |
| 2026-05-07 23:59 | 51.71717 | 1.14410 | 18734 ft | 381 kts | 262° |
| 2026-05-08 00:00 | 51.71428 | 1.10162 | 18134 ft | 379 kts | 262° |
| 2026-05-08 00:00 | 51.71139 | 1.05927 | 17524 ft | 377 kts | 262° |
| 2026-05-08 00:00 | 51.70853 | 1.01747 | 16944 ft | 374 kts | 262° |
| 2026-05-08 00:00 | 51.70566 | 0.97592 | 16382 ft | 370 kts | 262° |
| 2026-05-08 00:01 | 51.70284 | 0.93532 | 15881 ft | 367 kts | 262° |
| 2026-05-08 00:01 | 51.70002 | 0.89467 | 15433 ft | 362 kts | 262° |
| 2026-05-08 00:01 | 51.69722 | 0.85453 | 14988 ft | 357 kts | 262° |
| 2026-05-08 00:01 | 51.69446 | 0.81502 | 14557 ft | 353 kts | 262° |
| 2026-05-08 00:02 | 51.69172 | 0.77585 | 14130 ft | 349 kts | 262° |
| 2026-05-08 00:02 | 51.68899 | 0.73716 | 13678 ft | 346 kts | 262° |
| 2026-05-08 00:02 | 51.68626 | 0.69875 | 13216 ft | 343 kts | 262° |
| 2026-05-08 00:02 | 51.68354 | 0.66075 | 12777 ft | 340 kts | 262° |
| 2026-05-08 00:03 | 51.68087 | 0.62355 | 12356 ft | 336 kts | 262° |
| 2026-05-08 00:03 | 51.67820 | 0.58640 | 11948 ft | 332 kts | 262° |
| 2026-05-08 00:03 | 51.67555 | 0.54962 | 11538 ft | 329 kts | 262° |
| 2026-05-08 00:03 | 51.67289 | 0.51313 | 11134 ft | 326 kts | 263° |
| 2026-05-08 00:04 | 51.67026 | 0.47703 | 10736 ft | 323 kts | 263° |
| 2026-05-08 00:04 | 51.66764 | 0.44132 | 10347 ft | 319 kts | 263° |
| 2026-05-08 00:04 | 51.66503 | 0.40594 | 10007 ft | 315 kts | 263° |
| 2026-05-08 00:04 | 51.66253 | 0.37216 | 10010 ft | 299 kts | 263° |
| 2026-05-08 00:05 | 51.66012 | 0.33961 | 9951 ft | 286 kts | 263° |
| 2026-05-08 00:05 | 51.65782 | 0.30868 | 9809 ft | 270 kts | 263° |
| 2026-05-08 00:05 | 51.65563 | 0.27938 | 9539 ft | 259 kts | 263° |
| 2026-05-08 00:05 | 51.65349 | 0.25064 | 9037 ft | 259 kts | 263° |
| 2026-05-08 00:06 | 51.65135 | 0.22216 | 8555 ft | 259 kts | 263° |
| 2026-05-08 00:06 | 51.64921 | 0.19377 | 8240 ft | 252 kts | 263° |
| 2026-05-08 00:06 | 51.64711 | 0.16610 | 7942 ft | 245 kts | 263° |
| 2026-05-08 00:06 | 51.64506 | 0.13908 | 7647 ft | 240 kts | 263° |
| 2026-05-08 00:07 | 51.64306 | 0.11260 | 7304 ft | 237 kts | 263° |
| 2026-05-08 00:07 | 51.64108 | 0.08621 | 6924 ft | 238 kts | 263° |
| 2026-05-08 00:07 | 51.63911 | 0.06000 | 6725 ft | 234 kts | 263° |
| 2026-05-08 00:07 | 51.63798 | 0.03382 | 6585 ft | 234 kts | 267° |
| 2026-05-08 00:08 | 51.63737 | 0.00734 | 6407 ft | 240 kts | 268° |
| 2026-05-08 00:08 | 51.63683 | -0.01923 | 6278 ft | 242 kts | 268° |
| 2026-05-08 00:08 | 51.63635 | -0.04571 | 6150 ft | 242 kts | 268° |
| 2026-05-08 00:08 | 51.63592 | -0.07273 | 6034 ft | 241 kts | 268° |
| 2026-05-08 00:09 | 51.63550 | -0.09989 | 5930 ft | 244 kts | 268° |
| 2026-05-08 00:09 | 51.63509 | -0.12742 | 5818 ft | 247 kts | 268° |
| 2026-05-08 00:09 | 51.63468 | -0.15513 | 5699 ft | 246 kts | 268° |
| 2026-05-08 00:09 | 51.63429 | -0.18214 | 5573 ft | 243 kts | 268° |
| 2026-05-08 00:10 | 51.63394 | -0.20911 | 5452 ft | 239 kts | 268° |
| 2026-05-08 00:10 | 51.63360 | -0.23582 | 5357 ft | 239 kts | 268° |
| 2026-05-08 00:10 | 51.63329 | -0.26274 | 5256 ft | 241 kts | 268° |
| 2026-05-08 00:10 | 51.63299 | -0.28972 | 5154 ft | 242 kts | 268° |
| 2026-05-08 00:11 | 51.63271 | -0.31687 | 5054 ft | 243 kts | 268° |
| 2026-05-08 00:11 | 51.63245 | -0.34419 | 4955 ft | 244 kts | 268° |
| 2026-05-08 00:11 | 51.63219 | -0.37136 | 4837 ft | 245 kts | 268° |
| 2026-05-08 00:11 | 51.63195 | -0.39892 | 4729 ft | 246 kts | 268° |
| 2026-05-08 00:12 | 51.63173 | -0.42645 | 4628 ft | 246 kts | 268° |
| 2026-05-08 00:12 | 51.63150 | -0.45375 | 4510 ft | 242 kts | 268° |
| 2026-05-08 00:12 | 51.63130 | -0.48062 | 4416 ft | 238 kts | 268° |
| 2026-05-08 00:12 | 51.63110 | -0.50739 | 4332 ft | 238 kts | 268° |
| 2026-05-08 00:13 | 51.63090 | -0.53411 | 4248 ft | 239 kts | 268° |
| 2026-05-08 00:13 | 51.63071 | -0.56095 | 4160 ft | 240 kts | 268° |
| 2026-05-08 00:13 | 51.63052 | -0.58742 | 4093 ft | 240 kts | 268° |
| 2026-05-08 00:13 | 51.63032 | -0.61439 | 4014 ft | 240 kts | 268° |
| 2026-05-08 00:14 | 51.63012 | -0.64118 | 3961 ft | 239 kts | 268° |
| 2026-05-08 00:14 | 51.62993 | -0.66794 | 3904 ft | 238 kts | 268° |
| 2026-05-08 00:14 | 51.62976 | -0.69422 | 3855 ft | 237 kts | 268° |
| 2026-05-08 00:14 | 51.62958 | -0.72065 | 3817 ft | 235 kts | 268° |
| 2026-05-08 00:15 | 51.62941 | -0.74697 | 3783 ft | 234 kts | 268° |
| 2026-05-08 00:15 | 51.62925 | -0.77312 | 3759 ft | 233 kts | 268° |
| 2026-05-08 00:15 | 51.62899 | -0.79919 | 3747 ft | 233 kts | 263° |
| 2026-05-08 00:15 | 51.62391 | -0.82347 | 3731 ft | 230 kts | 231° |
| 2026-05-08 00:16 | 51.61159 | -0.83932 | 3718 ft | 228 kts | 198° |
| 2026-05-08 00:16 | 51.59616 | -0.84406 | 3683 ft | 226 kts | 183° |
| 2026-05-08 00:16 | 51.58038 | -0.84607 | 3613 ft | 228 kts | 182° |
| 2026-05-08 00:16 | 51.56462 | -0.84784 | 3533 ft | 226 kts | 182° |
| 2026-05-08 00:17 | 51.54912 | -0.84956 | 3469 ft | 223 kts | 181° |
| 2026-05-08 00:17 | 51.53367 | -0.85127 | 3407 ft | 223 kts | 181° |
| 2026-05-08 00:17 | 51.51810 | -0.85300 | 3365 ft | 224 kts | 181° |
| 2026-05-08 00:17 | 51.50250 | -0.85472 | 3350 ft | 225 kts | 181° |
| 2026-05-08 00:18 | 51.48691 | -0.85568 | 3285 ft | 224 kts | 171° |
| 2026-05-08 00:18 | 51.47360 | -0.84536 | 3264 ft | 215 kts | 129° |
| 2026-05-08 00:18 | 51.46833 | -0.82353 | 3216 ft | 213 kts | 89° |
| 2026-05-08 00:18 | 51.47186 | -0.80116 | 3170 ft | 206 kts | 74° |
| 2026-05-08 00:19 | 51.47455 | -0.77839 | 3088 ft | 206 kts | 86° |
| 2026-05-08 00:19 | 51.47608 | -0.75570 | 3009 ft | 209 kts | 86° |
| 2026-05-08 00:19 | 51.47691 | -0.73235 | 2830 ft | 207 kts | 90° |
| 2026-05-08 00:19 | 51.47709 | -0.70966 | 2666 ft | 198 kts | 91° |
| 2026-05-08 00:20 | 51.47711 | -0.68831 | 2533 ft | 183 kts | 92° |
| 2026-05-08 00:20 | 51.47713 | -0.66869 | 2367 ft | 169 kts | 92° |
| 2026-05-08 00:20 | 51.47715 | -0.65023 | 2183 ft | 164 kts | 92° |
| 2026-05-08 00:20 | 51.47716 | -0.63179 | 1933 ft | 165 kts | 92° |
| 2026-05-08 00:21 | 51.47720 | -0.61364 | 1720 ft | 162 kts | 92° |
| 2026-05-08 00:21 | 51.47723 | -0.59611 | 1480 ft | 152 kts | 92° |
| 2026-05-08 00:21 | 51.47727 | -0.57952 | 1275 ft | 146 kts | 92° |
| 2026-05-08 00:21 | 51.47730 | -0.56333 | 1084 ft | 145 kts | 92° |
| 2026-05-08 00:22 | 51.47733 | -0.54695 | 863 ft | 148 kts | 91° |
| 2026-05-08 00:22 | 51.47723 | -0.53056 | 623 ft | 150 kts | 92° |
| 2026-05-08 00:22 | 51.47737 | -0.51403 | 464 ft | 145 kts | 89° |
| 2026-05-08 00:22 | 51.47748 | -0.49791 | 299 ft | 147 kts | 91° |
| 2026-05-08 00:23 | 51.47745 | -0.48129 | 111 ft | 147 kts | 90° |
| 2026-05-08 00:23 | 51.47753 | -0.46635 | 92 ft | 115 kts | 89° |
| 2026-05-08 00:23 | 51.47756 | -0.45678 | 86 ft | 59 kts | 89° |
| 2026-05-08 00:23 | 51.47755 | -0.45256 | 87 ft | 28 kts | 108° |
| 2026-05-08 00:24 | 51.47653 | -0.45176 | 88 ft | 0 kts | 179° |
| 2026-05-08 00:24 | 51.47647 | -0.45176 | 88 ft | 4 kts | 180° |
| 2026-05-08 00:24 | 51.47565 | -0.45175 | 85 ft | 17 kts | 179° |
| 2026-05-08 00:25 | 51.47507 | -0.45057 | 85 ft | 15 kts | 94° |
| 2026-05-08 00:25 | 51.47509 | -0.44897 | 87 ft | 14 kts | 90° |
| 2026-05-08 00:25 | 51.47501 | -0.44744 | 85 ft | 13 kts | 98° |
| 2026-05-08 00:25 | 51.47492 | -0.44599 | 86 ft | 13 kts | 110° |
| 2026-05-08 00:26 | 51.47411 | -0.44559 | 84 ft | 13 kts | 179° |
| 2026-05-08 00:26 | 51.47324 | -0.44558 | 84 ft | 12 kts | 179° |
| 2026-05-08 00:26 | 51.47237 | -0.44556 | 84 ft | 12 kts | 180° |
| 2026-05-08 00:26 | 51.47154 | -0.44557 | 84 ft | 13 kts | 180° |
| 2026-05-08 00:27 | 51.47058 | -0.44557 | 84 ft | 13 kts | 180° |
| 2026-05-08 00:27 | 51.47008 | -0.44561 | 84 ft | 6 kts | 195° |
| 2026-05-08 00:27 | 51.46997 | -0.44616 | 84 ft | 6 kts | 279° |
| 2026-05-08 00:27 | 51.46999 | -0.44670 | 84 ft | 4 kts | 271° |
| 2026-05-08 00:28 | 51.46999 | -0.44686 | 84 ft | 0 kts | 270° |